Site:       
  Group:  
  From:      To:        
   
Sensor Name: Furnace      Latitude:-9.57320000 , Longitude:53.92290000
Please click on the Table Headers to view a Graph of the Observations.
TimeMax. Temp. (°C)Min. Temp. (°C)Mean Temp. (°C)Tot. Rain (mm)Mean Wind (kn)Max Gust (kn)Solar Rad. (J\cm2)Humidity (%)Atmos. Press. (mb)Temp. 5cm (°C)Temp. 10cm (°C)Temp. 20cm (°C)Temp. 30cm (°C)Temp. 50cm (°C)Temp. 100cm (°C)Grass Min. (°C)
22/07/2019 23:00:0019.20 18.90 19.10 0.00 5.70 14.00 0.00 85.40 1009.70 18.50 18.40 18.10 17.70 16.70 15.70 18.10
22/07/2019 22:00:0019.20 18.60 18.90 0.00 8.40 17.30 0.00 88.10 1009.60 18.60 18.50 18.20 17.70 16.70 15.70 18.20
22/07/2019 21:00:0018.80 18.60 18.70 0.00 9.80 19.10 0.30 89.10 1009.60 18.90 18.80 18.20 17.70 16.60 15.70 18.30
22/07/2019 20:00:0019.30 18.80 19.00 0.00 11.90 24.50 6.80 86.90 1009.60 19.30 19.10 18.20 17.60 16.60 15.70 18.60
22/07/2019 19:00:0020.00 19.30 19.60 0.00 12.10 21.50 29.90 83.90 1009.50 19.60 19.30 18.10 17.60 16.60 15.70 19.50
22/07/2019 18:00:0020.30 19.90 20.10 0.00 12.50 25.90 54.20 81.60 1009.30 19.70 19.40 18.00 17.50 16.60 15.70 20.70
22/07/2019 17:00:0020.70 19.80 20.20 0.00 11.40 18.90 49.90 81.20 1009.30 19.90 19.50 17.90 17.40 16.60 15.70 20.50
22/07/2019 16:00:0020.90 20.20 20.60 0.00 12.50 21.40 85.90 80.10 1009.30 19.80 19.30 17.70 17.30 16.50 15.70 21.70
22/07/2019 15:00:0020.50 20.00 20.20 0.00 14.60 28.00 76.90 83.80 1009.40 19.60 19.10 17.50 17.20 16.50 15.70 21.10
22/07/2019 14:00:0020.70 20.10 20.40 0.00 15.10 24.60 106.70 82.50 1009.30 19.20 18.70 17.40 17.10 16.50 15.70 21.40
22/07/2019 13:00:0020.20 18.60 19.40 0.00 17.60 29.40 90.10 87.30 1009.60 18.50 18.20 17.20 17.10 16.50 15.70 19.10
22/07/2019 12:00:0019.40 18.70 19.10 0.00 16.50 28.80 38.60 86.90 1009.50 18.50 18.20 17.10 17.00 16.50 15.70 19.20
22/07/2019 11:00:0019.50 19.00 19.30 0.00 18.10 29.90 74.70 86.30 1008.90 18.20 17.90 17.00 17.00 16.50 15.70 20.10
22/07/2019 10:00:0019.10 18.60 18.90 0.00 18.40 30.80 72.90 86.50 1008.60 17.70 17.50 16.90 17.00 16.50 15.70 19.40
22/07/2019 09:00:0018.60 18.20 18.40 0.00 17.80 27.90 36.30 88.40 1008.40 17.40 17.30 16.90 17.00 16.50 15.70 18.50
22/07/2019 08:00:0018.30 17.90 18.10 0.00 17.70 27.70 20.20 90.50 1007.70 17.30 17.20 16.90 17.00 16.50 15.70 17.90
22/07/2019 07:00:0018.00 17.90 18.00 0.00 19.40 30.30 13.10 92.20 1006.90 17.20 17.20 16.90 17.00 16.50 15.70 17.70
22/07/2019 06:00:0018.00 17.70 17.80 0.00 18.80 29.10 4.40 93.80 1006.40 17.20 17.10 16.90 17.00 16.50 15.70 17.50
22/07/2019 05:00:0017.80 17.60 17.70 0.00 18.00 29.60 0.10 95.90 1006.20 17.20 17.20 16.90 17.00 16.50 15.70 17.30
22/07/2019 04:00:0017.80 17.60 17.70 0.00 17.70 29.50 0.00 96.60 1005.90 17.20 17.20 16.90 17.00 16.50 15.70 17.30
22/07/2019 03:00:0017.70 17.60 17.60 0.00 17.90 29.40 0.00 96.90 1005.90 17.30 17.20 16.90 17.00 16.50 15.70 17.30
22/07/2019 02:00:0017.80 17.60 17.70 0.10 17.00 29.50 0.00 97.00 1005.70 17.30 17.20 16.90 17.00 16.50 15.70 17.40
22/07/2019 01:00:0017.80 17.60 17.70 1.00 17.20 30.50 0.00 97.10 1005.40 17.30 17.20 16.90 16.90 16.50 15.60 17.40
22/07/2019 00:00:0017.80 17.60 17.70 1.60 19.00 33.40 0.00 97.20 1005.00 17.30 17.20 16.90 16.90 16.40 15.60 17.50
21/07/2019 23:00:0017.70 17.60 17.60 2.10 18.90 34.60 0.00 97.50 1004.80 17.30 17.30 16.90 -999.00 16.40 15.60 -999.00
21/07/2019 22:00:0017.60 17.50 17.60 3.00 14.80 29.10 0.00 97.60 1004.40 17.40 17.30 16.90 -999.00 16.40 15.60 -999.00